Time;durP1;ratioP1;P1;durP2;ratioP2;P2;SDS_P1;SDS_P2;PMS_P1;PMS_P2;Temp;Humidity;BMP_temperature;BMP_pressure;BME280_temperature;BME280_humidity;BME280_pressure;Samples;Min_cycle;Max_cycle;Signal;HPM_P1;HPM_P2
2022/08/27 00:02:11;;;;;;;6.82;3.47;;;14.20;99.90;;;;;;5050283;28;20196;-72
2022/08/27 00:04:42;;;;;;;5.05;2.78;;;14.20;99.90;;;;;;5052417;28;20213;-74
2022/08/27 00:07:13;;;;;;;5.38;2.85;;;14.20;99.90;;;;;;5050513;28;20198;-74
2022/08/27 00:09:45;;;;;;;6.55;2.40;;;14.20;99.90;;;;;;5051084;28;20231;-74
2022/08/27 00:12:17;;;;;;;5.35;2.10;;;14.20;99.90;;;;;;5052412;28;20196;-74
2022/08/27 00:14:48;;;;;;;7.07;2.10;;;14.20;99.90;;;;;;5043733;28;20203;-71
2022/08/27 00:17:19;;;;;;;4.32;1.95;;;14.20;99.90;;;;;;5045745;28;20197;-73
2022/08/27 00:19:50;;;;;;;5.07;1.90;;;14.30;99.90;;;;;;5046946;28;20198;-70
2022/08/27 00:22:21;;;;;;;6.40;1.80;;;14.50;99.90;;;;;;5041938;28;20190;-73
2022/08/27 00:24:51;;;;;;;3.90;2.20;;;14.70;99.90;;;;;;5044305;28;20696;-70
2022/08/27 00:27:24;;;;;;;3.90;2.05;;;15.00;99.90;;;;;;5044747;28;20192;-71
2022/08/27 00:29:55;;;;;;;3.28;1.70;;;15.20;99.90;;;;;;5044538;28;20541;-73
2022/08/27 00:32:26;;;;;;;3.90;1.50;;;15.50;99.90;;;;;;5040647;28;20634;-71
2022/08/27 00:34:56;;;;;;;2.90;1.25;;;15.60;99.90;;;;;;5041286;28;20197;-70
2022/08/27 00:37:27;;;;;;;2.17;1.30;;;15.60;99.90;;;;;;5044481;28;20204;-72
2022/08/27 00:39:58;;;;;;;4.03;1.70;;;15.70;99.90;;;;;;5041965;28;20225;-71
2022/08/27 00:42:30;;;;;;;4.20;1.55;;;15.90;99.90;;;;;;5043461;28;20202;-72
2022/08/27 00:45:01;;;;;;;2.55;1.30;;;16.00;99.90;;;;;;5045084;28;20213;-70
2022/08/27 00:47:36;;;;;;;3.97;1.30;;;16.10;99.90;;;;;;5046045;28;20198;-70
2022/08/27 00:50:10;;;;;;;3.67;1.30;;;16.00;99.90;;;;;;5042357;28;20194;-73
2022/08/27 00:52:53;;;;;;;2.40;1.23;;;16.10;99.90;;;;;;5046122;28;20182;-70
2022/08/27 00:55:27;;;;;;;2.95;1.30;;;16.00;99.90;;;;;;5045135;28;20208;-71
2022/08/27 00:58:05;;;;;;;4.80;1.40;;;15.90;99.90;;;;;;5039931;28;20200;-70
2022/08/27 01:00:37;;;;;;;4.55;1.95;;;15.70;99.90;;;;;;5046910;28;20194;-70
2022/08/27 01:03:08;;;;;;;3.65;1.20;;;15.60;99.90;;;;;;5039961;28;20652;-70
2022/08/27 01:05:39;;;;;;;0.90;0.60;;;15.50;99.90;;;;;;5041876;28;20660;-69
2022/08/27 01:08:13;;;;;;;3.00;0.70;;;15.30;99.90;;;;;;5037680;28;20555;-72
2022/08/27 01:10:44;;;;;;;2.10;0.85;;;15.20;99.90;;;;;;5045706;28;20194;-71
2022/08/27 01:13:21;;;;;;;3.47;1.02;;;15.10;99.90;;;;;;5047119;28;20274;-73
2022/08/27 01:15:57;;;;;;;3.08;0.77;;;15.00;99.90;;;;;;5050894;28;20199;-72
2022/08/27 01:18:29;;;;;;;2.72;0.70;;;14.90;99.90;;;;;;5049532;28;20232;-72
2022/08/27 01:21:05;;;;;;;1.73;1.00;;;14.80;99.90;;;;;;5045916;28;20209;-72
2022/08/27 01:23:42;;;;;;;2.13;0.80;;;14.80;99.90;;;;;;5050294;28;20197;-72
2022/08/27 01:26:16;;;;;;;4.32;0.80;;;14.80;99.90;;;;;;5047697;28;20200;-73
2022/08/27 01:28:48;;;;;;;3.75;0.75;;;14.80;99.90;;;;;;5051285;28;20652;-73
2022/08/27 01:31:18;;;;;;;3.05;0.65;;;14.70;99.90;;;;;;5048988;28;20199;-73
2022/08/27 01:33:59;;;;;;;1.85;0.63;;;14.60;99.90;;;;;;5052392;28;20711;-71
2022/08/27 01:36:30;;;;;;;2.40;0.90;;;14.60;99.90;;;;;;5049480;28;20204;-73
2022/08/27 01:39:01;;;;;;;2.17;0.60;;;14.60;99.90;;;;;;5046131;28;20594;-74
2022/08/27 01:41:33;;;;;;;1.63;0.70;;;14.70;99.90;;;;;;5045871;28;20200;-72
2022/08/27 01:44:04;;;;;;;2.03;0.90;;;14.70;99.90;;;;;;5050646;28;20214;-73
2022/08/27 01:46:35;;;;;;;3.50;1.05;;;14.80;99.90;;;;;;5050295;28;20649;-74
2022/08/27 01:49:06;;;;;;;3.95;0.90;;;14.80;99.90;;;;;;5046254;28;20194;-69
2022/08/27 01:51:37;;;;;;;1.20;0.80;;;14.80;99.90;;;;;;5050127;28;20670;-70
2022/08/27 01:54:08;;;;;;;1.50;0.95;;;14.80;99.90;;;;;;5049615;28;20236;-70
2022/08/27 01:56:41;;;;;;;4.55;1.10;;;15.10;99.90;;;;;;5048367;28;20194;-69
2022/08/27 01:59:11;;;;;;;3.55;1.45;;;15.20;99.90;;;;;;5046960;28;20558;-69
2022/08/27 02:01:42;;;;;;;3.08;1.10;;;15.50;99.90;;;;;;5049279;28;20545;-70
2022/08/27 02:04:13;;;;;;;3.13;0.93;;;15.60;99.90;;;;;;5049889;28;20221;-73
2022/08/27 02:06:44;;;;;;;2.15;0.80;;;15.80;99.90;;;;;;5050068;28;20564;-73
2022/08/27 02:09:14;;;;;;;2.03;0.90;;;15.80;99.90;;;;;;5046047;28;20194;-73
2022/08/27 02:11:47;;;;;;;2.40;0.80;;;15.90;99.90;;;;;;5047448;28;20220;-74
2022/08/27 02:14:18;;;;;;;1.52;0.90;;;16.00;99.90;;;;;;5049083;28;20186;-73
2022/08/27 02:16:48;;;;;;;4.47;1.33;;;16.10;99.90;;;;;;5051053;28;20209;-72
2022/08/27 02:19:20;;;;;;;1.58;0.80;;;16.40;99.90;;;;;;5046833;28;20198;-72
2022/08/27 02:21:51;;;;;;;2.63;0.60;;;16.60;99.90;;;;;;5048411;28;20571;-70
2022/08/27 02:24:22;;;;;;;2.80;0.70;;;16.40;99.90;;;;;;5043987;28;20297;-73
2022/08/27 02:26:55;;;;;;;2.42;0.95;;;16.20;99.90;;;;;;5046712;28;20194;-69
2022/08/27 02:29:26;;;;;;;1.52;0.28;;;16.20;99.90;;;;;;5046202;28;20189;-72
2022/08/27 02:31:56;;;;;;;3.63;0.50;;;16.20;99.90;;;;;;5045419;28;20206;-70
2022/08/27 02:34:27;;;;;;;1.75;0.70;;;16.30;99.90;;;;;;5047281;28;20205;-70
2022/08/27 02:36:58;;;;;;;0.65;0.30;;;16.40;99.90;;;;;;5046590;28;20200;-70
2022/08/27 02:39:29;;;;;;;1.35;0.40;;;16.50;99.90;;;;;;5044587;28;20779;-75
2022/08/27 02:42:02;;;;;;;1.45;0.57;;;16.70;99.90;;;;;;5048545;28;20209;-68
2022/08/27 02:44:34;;;;;;;0.52;0.40;;;16.80;99.90;;;;;;5048484;28;20210;-69
2022/08/27 02:47:05;;;;;;;1.52;0.50;;;16.80;99.90;;;;;;5043781;28;20190;-68
2022/08/27 02:49:36;;;;;;;1.42;0.45;;;16.60;99.90;;;;;;5043068;28;20286;-70
2022/08/27 02:52:07;;;;;;;2.40;0.70;;;16.60;99.90;;;;;;5046577;28;20198;-69
2022/08/27 02:54:38;;;;;;;0.30;0.30;;;16.70;99.90;;;;;;5046608;28;20209;-68
2022/08/27 02:57:11;;;;;;;1.40;0.40;;;16.90;99.90;;;;;;5041698;28;20193;-71
2022/08/27 02:59:41;;;;;;;1.13;0.43;;;17.20;99.90;;;;;;5042540;28;20202;-71
2022/08/27 03:02:12;;;;;;;0.20;0.20;;;17.30;99.90;;;;;;5043895;28;20198;-72
2022/08/27 03:04:43;;;;;;;2.50;0.50;;;17.20;99.90;;;;;;5041900;28;20577;-68
2022/08/27 03:07:14;;;;;;;1.50;0.47;;;17.20;99.90;;;;;;5045894;28;20292;-69
2022/08/27 03:09:45;;;;;;;1.60;0.60;;;17.10;99.90;;;;;;5044186;28;20202;-70
2022/08/27 03:12:18;;;;;;;3.03;0.50;;;17.00;99.90;;;;;;5042662;28;20268;-68
2022/08/27 03:14:49;;;;;;;4.03;0.47;;;17.00;99.90;;;;;;5041779;28;20198;-69
2022/08/27 03:20:07;;;;;;;1.15;0.40;;;16.90;99.90;;;;;;5045760;28;20197;-76
2022/08/27 03:22:38;;;;;;;1.92;0.75;;;16.70;99.90;;;;;;5047710;28;20204;-74
2022/08/27 03:25:10;;;;;;;2.17;0.50;;;16.60;99.90;;;;;;5045865;28;20218;-75
2022/08/27 03:27:43;;;;;;;1.25;0.60;;;16.50;99.90;;;;;;5043821;28;20196;-78
2022/08/27 03:30:16;;;;;;;3.17;0.60;;;16.60;99.90;;;;;;5044001;28;20205;-76
2022/08/27 03:32:47;;;;;;;0.68;0.50;;;16.70;99.90;;;;;;5045132;28;20718;-76
2022/08/27 03:35:18;;;;;;;1.30;0.35;;;16.70;99.90;;;;;;5044913;28;20204;-76
2022/08/27 03:37:49;;;;;;;1.75;0.43;;;16.60;99.90;;;;;;5043497;28;20198;-69
2022/08/27 03:40:20;;;;;;;1.85;0.50;;;16.70;99.90;;;;;;5043580;28;20719;-69
2022/08/27 03:42:53;;;;;;;2.05;0.40;;;16.60;99.90;;;;;;5040709;28;20558;-68
2022/08/27 03:45:23;;;;;;;1.13;0.40;;;16.70;99.90;;;;;;5043179;28;20225;-78
2022/08/27 03:47:54;;;;;;;0.57;0.40;;;16.70;99.90;;;;;;5044178;28;20193;-81
2022/08/27 03:50:25;;;;;;;0.63;0.40;;;16.70;99.90;;;;;;5042672;28;20212;-78
2022/08/27 03:52:56;;;;;;;0.98;0.40;;;16.60;99.90;;;;;;5046372;28;20273;-80
2022/08/27 03:55:27;;;;;;;2.22;1.27;;;16.70;99.90;;;;;;5042239;28;20198;-79
2022/08/27 03:57:59;;;;;;;2.72;1.13;;;16.70;99.90;;;;;;5042241;28;20209;-79
2022/08/27 04:00:30;;;;;;;2.00;1.40;;;16.80;99.90;;;;;;5045529;28;20208;-77
2022/08/27 04:03:01;;;;;;;2.72;0.77;;;16.80;99.90;;;;;;5044561;28;20199;-80
2022/08/27 04:05:32;;;;;;;3.65;0.50;;;16.90;99.90;;;;;;5042498;28;20213;-78
2022/08/27 04:08:02;;;;;;;1.90;0.90;;;17.00;99.90;;;;;;5045337;28;20201;-74
2022/08/27 04:10:34;;;;;;;3.03;0.40;;;17.00;99.90;;;;;;5047128;28;20202;-72
2022/08/27 04:13:06;;;;;;;2.78;0.40;;;17.00;99.90;;;;;;5046902;28;20212;-69
2022/08/27 04:15:37;;;;;;;3.92;0.50;;;16.90;99.90;;;;;;5046793;28;20208;-71
2022/08/27 04:18:08;;;;;;;1.08;0.30;;;16.90;99.90;;;;;;5047165;28;20201;-70
2022/08/27 04:20:39;;;;;;;0.70;0.40;;;16.80;99.90;;;;;;5043544;28;20195;-69
2022/08/27 04:23:09;;;;;;;0.85;0.40;;;16.80;99.90;;;;;;5044276;28;20194;-68
2022/08/27 04:25:42;;;;;;;2.13;0.60;;;16.90;99.90;;;;;;5045260;28;20221;-69
2022/08/27 04:28:15;;;;;;;2.03;0.40;;;17.00;99.90;;;;;;5046354;28;20587;-78
2022/08/27 04:30:47;;;;;;;1.33;0.50;;;17.10;99.90;;;;;;5040636;28;20204;-68
2022/08/27 04:33:18;;;;;;;1.20;0.50;;;17.10;99.90;;;;;;5044555;28;20182;-68
2022/08/27 04:35:49;;;;;;;2.13;0.50;;;17.10;99.90;;;;;;5046225;28;20572;-70
2022/08/27 04:38:20;;;;;;;4.38;0.50;;;17.20;99.90;;;;;;5045696;28;20239;-68
2022/08/27 04:43:39;;;;;;;3.60;0.60;;;17.30;99.90;;;;;;5042980;28;20200;-70
2022/08/27 04:46:10;;;;;;;3.80;0.50;;;17.20;99.90;;;;;;5041420;28;20219;-72
2022/08/27 04:48:41;;;;;;;3.88;0.85;;;17.10;99.90;;;;;;5045144;28;20200;-70
2022/08/27 04:51:12;;;;;;;7.97;3.97;;;17.00;99.90;;;;;;5040304;28;20439;-73
2022/08/27 04:53:42;;;;;;;1.60;1.00;;;16.90;99.90;;;;;;5043103;28;20190;-70
2022/08/27 04:56:16;;;;;;;1.98;0.75;;;16.80;99.90;;;;;;5039534;28;20190;-72
2022/08/27 04:58:51;;;;;;;2.42;0.60;;;17.00;99.90;;;;;;5042652;28;20218;-73
2022/08/27 05:01:23;;;;;;;1.42;0.50;;;17.00;99.90;;;;;;5044614;28;20205;-71
2022/08/27 05:03:54;;;;;;;2.33;0.75;;;17.00;99.90;;;;;;5041634;28;20195;-71
2022/08/27 05:06:25;;;;;;;1.83;1.00;;;17.20;99.90;;;;;;5041122;28;20228;-75
2022/08/27 05:08:57;;;;;;;1.95;0.50;;;17.30;99.90;;;;;;5047953;28;20239;-75
2022/08/27 05:11:33;;;;;;;5.18;0.40;;;17.40;99.90;;;;;;5042831;28;20195;-74
2022/08/27 05:14:08;;;;;;;1.40;0.50;;;17.40;99.90;;;;;;5043836;28;20297;-71
2022/08/27 05:16:39;;;;;;;3.88;0.60;;;17.40;99.90;;;;;;5036439;28;20190;-74
2022/08/27 05:19:13;;;;;;;1.25;0.50;;;17.50;99.90;;;;;;5049010;28;20227;-72
2022/08/27 05:21:48;;;;;;;2.30;0.60;;;17.50;99.90;;;;;;5046163;28;20234;-72
2022/08/27 05:24:20;;;;;;;3.25;0.60;;;17.40;99.90;;;;;;5043979;28;20231;-76
2022/08/27 05:26:51;;;;;;;0.85;0.40;;;17.30;99.90;;;;;;5048551;28;20218;-72
2022/08/27 05:29:23;;;;;;;3.58;0.60;;;17.30;99.90;;;;;;5047113;28;20197;-75
2022/08/27 05:31:55;;;;;;;2.58;0.40;;;17.20;99.90;;;;;;5046573;28;20193;-73
2022/08/27 05:34:25;;;;;;;0.77;0.28;;;17.00;99.90;;;;;;5044145;28;20209;-71
2022/08/27 05:36:56;;;;;;;3.90;0.40;;;16.90;99.90;;;;;;5042544;28;20197;-72
2022/08/27 05:39:27;;;;;;;2.10;0.93;;;16.90;99.90;;;;;;5046211;28;20237;-73
2022/08/27 05:42:00;;;;;;;4.70;2.72;;;16.80;99.90;;;;;;5046318;28;20276;-72
2022/08/27 05:44:33;;;;;;;2.88;0.95;;;16.80;99.90;;;;;;5044467;28;20211;-70
2022/08/27 05:47:04;;;;;;;3.20;0.70;;;16.70;99.90;;;;;;5049010;28;20696;-70
2022/08/27 05:49:35;;;;;;;3.63;1.27;;;16.70;99.90;;;;;;5050559;28;20198;-72
2022/08/27 05:52:09;;;;;;;1.60;0.52;;;16.60;99.90;;;;;;5044711;28;20212;-72
2022/08/27 05:54:40;;;;;;;4.05;1.63;;;16.50;99.90;;;;;;5050220;28;20198;-71
2022/08/27 05:57:11;;;;;;;2.95;0.90;;;16.40;99.90;;;;;;5052135;28;20226;-72
2022/08/27 06:02:30;;;;;;;0.98;0.60;;;16.40;99.90;;;;;;5052556;28;20216;-71
2022/08/27 06:05:02;;;;;;;1.92;0.40;;;16.40;99.90;;;;;;5052826;28;20208;-71
2022/08/27 06:07:34;;;;;;;3.03;0.68;;;16.50;99.90;;;;;;5055317;28;20276;-70
2022/08/27 06:10:06;;;;;;;3.60;0.50;;;16.50;99.90;;;;;;5051476;28;20194;-70
2022/08/27 06:12:37;;;;;;;1.40;0.50;;;16.50;99.90;;;;;;5053624;28;20193;-69
2022/08/27 06:15:10;;;;;;;2.72;0.60;;;16.50;99.90;;;;;;5052740;28;20205;-70
2022/08/27 06:17:41;;;;;;;2.58;0.50;;;16.60;99.90;;;;;;5054654;28;20196;-71
2022/08/27 06:20:12;;;;;;;1.60;0.60;;;16.60;99.90;;;;;;5053657;28;20198;-70
2022/08/27 06:22:44;;;;;;;3.60;0.75;;;16.50;99.90;;;;;;5053156;28;20433;-70
2022/08/27 06:25:15;;;;;;;1.55;0.40;;;16.50;99.90;;;;;;5051817;28;20221;-71
2022/08/27 06:27:46;;;;;;;3.28;0.45;;;16.50;99.90;;;;;;5050579;28;20198;-69
2022/08/27 06:30:19;;;;;;;2.95;0.50;;;16.50;99.90;;;;;;5048609;28;20691;-70
2022/08/27 06:32:50;;;;;;;2.15;0.55;;;16.40;99.90;;;;;;5051342;28;20193;-70
2022/08/27 06:35:21;;;;;;;11.27;6.57;;;16.30;99.90;;;;;;5052603;28;20279;-71
2022/08/27 06:37:52;;;;;;;3.03;0.63;;;16.30;99.90;;;;;;5053374;28;20196;-70
2022/08/27 06:40:22;;;;;;;2.25;0.60;;;16.30;99.90;;;;;;5049202;28;20229;-70
2022/08/27 06:42:53;;;;;;;5.68;1.20;;;16.20;99.90;;;;;;5052822;28;20202;-70
2022/08/27 06:45:26;;;;;;;1.15;0.75;;;16.20;99.90;;;;;;5053140;28;20228;-70
2022/08/27 06:47:57;;;;;;;3.67;0.77;;;16.20;99.90;;;;;;5045917;28;20196;-70
2022/08/27 06:50:28;;;;;;;0.60;0.45;;;16.10;99.90;;;;;;5048910;28;20583;-69
2022/08/27 06:52:58;;;;;;;3.97;0.70;;;16.00;99.90;;;;;;5045920;28;20196;-70
2022/08/27 06:55:29;;;;;;;1.95;0.57;;;16.00;99.90;;;;;;5052319;28;20208;-70
2022/08/27 06:58:00;;;;;;;1.05;0.52;;;15.90;99.90;;;;;;5049291;28;20304;-71
2022/08/27 07:00:33;;;;;;;1.90;0.50;;;15.80;99.90;;;;;;5052747;28;20196;-70
2022/08/27 07:03:05;;;;;;;1.05;0.60;;;15.70;99.90;;;;;;5053175;28;20428;-71
2022/08/27 07:05:37;;;;;;;2.17;1.10;;;15.60;99.90;;;;;;5053443;28;20255;-71
2022/08/27 07:08:09;;;;;;;2.80;1.10;;;15.60;99.90;;;;;;5050573;28;20208;-70
2022/08/27 07:10:40;;;;;;;3.38;1.02;;;15.50;99.90;;;;;;5048761;28;20664;-70
2022/08/27 07:13:11;;;;;;;2.25;0.93;;;15.40;99.90;;;;;;5052846;28;20205;-70
2022/08/27 07:15:43;;;;;;;2.85;0.80;;;15.40;99.90;;;;;;5052705;28;20538;-70
2022/08/27 07:18:14;;;;;;;3.22;0.70;;;15.30;99.90;;;;;;5052362;28;20206;-70
2022/08/27 07:20:45;;;;;;;2.22;0.85;;;15.30;99.90;;;;;;5052699;28;20204;-70
2022/08/27 07:23:16;;;;;;;1.75;0.85;;;15.30;99.90;;;;;;5052264;28;20789;-70
2022/08/27 07:25:47;;;;;;;2.00;0.80;;;15.30;99.90;;;;;;5053038;28;20209;-70
2022/08/27 07:28:18;;;;;;;1.02;0.70;;;15.20;99.90;;;;;;5051404;28;20198;-69
2022/08/27 07:30:50;;;;;;;2.15;0.80;;;15.10;99.90;;;;;;5052300;28;20657;-71
2022/08/27 07:33:21;;;;;;;1.63;0.80;;;15.10;99.90;;;;;;5052476;28;20198;-70
2022/08/27 07:35:52;;;;;;;3.00;0.70;;;15.10;99.90;;;;;;5051999;28;20206;-70
2022/08/27 07:38:23;;;;;;;4.03;1.05;;;15.00;99.90;;;;;;5052821;28;20186;-70
2022/08/27 07:40:54;;;;;;;2.85;1.00;;;14.90;99.90;;;;;;5051994;28;20205;-72
2022/08/27 07:46:13;;;;;;;3.38;1.10;;;14.90;99.90;;;;;;5049916;28;20229;-72
2022/08/27 07:48:44;;;;;;;2.25;0.93;;;14.80;99.90;;;;;;5051834;28;20204;-70
2022/08/27 07:51:18;;;;;;;3.40;1.00;;;14.80;99.90;;;;;;5051758;28;20198;-70
2022/08/27 07:53:49;;;;;;;3.78;1.17;;;14.80;99.90;;;;;;5052319;28;20652;-71
2022/08/27 07:56:20;;;;;;;1.23;0.90;;;14.70;99.90;;;;;;5051068;28;20198;-70
2022/08/27 07:58:50;;;;;;;1.90;0.80;;;14.70;99.90;;;;;;5045771;28;20221;-70
2022/08/27 08:01:23;;;;;;;2.42;0.98;;;14.70;99.90;;;;;;5050740;28;20193;-71
2022/08/27 08:03:54;;;;;;;1.58;0.85;;;14.70;99.90;;;;;;5051640;28;20198;-70
2022/08/27 08:06:25;;;;;;;1.65;0.98;;;14.60;99.90;;;;;;5048058;28;20218;-70
2022/08/27 08:08:56;;;;;;;2.17;0.90;;;14.60;99.90;;;;;;5052264;28;20547;-70
2022/08/27 08:11:27;;;;;;;3.15;1.02;;;14.60;99.90;;;;;;5052524;28;20186;-69
2022/08/27 08:13:57;;;;;;;3.17;0.90;;;14.50;99.90;;;;;;5049260;28;20198;-72
2022/08/27 08:16:30;;;;;;;2.45;0.95;;;14.50;99.90;;;;;;5052669;28;20210;-69
2022/08/27 08:19:01;;;;;;;2.10;0.90;;;14.50;99.90;;;;;;5048649;28;20235;-72
2022/08/27 08:21:32;;;;;;;1.88;0.98;;;14.50;99.90;;;;;;5051920;28;20186;-70
2022/08/27 08:24:03;;;;;;;2.47;1.10;;;14.40;99.90;;;;;;5051768;28;20197;-69
2022/08/27 08:26:33;;;;;;;6.63;1.75;;;14.40;99.90;;;;;;5050923;28;20213;-70
2022/08/27 08:29:05;;;;;;;2.72;1.00;;;14.40;99.90;;;;;;5046311;28;20201;-71
2022/08/27 08:31:38;;;;;;;1.50;1.25;;;14.30;99.90;;;;;;5051639;28;20193;-69
2022/08/27 08:34:08;;;;;;;4.50;1.60;;;14.30;99.90;;;;;;5049334;28;20200;-71
2022/08/27 08:36:39;;;;;;;3.80;1.80;;;14.30;99.90;;;;;;5043882;28;20202;-70
2022/08/27 08:39:10;;;;;;;2.65;1.90;;;14.20;99.90;;;;;;5050448;28;20594;-70
2022/08/27 08:41:44;;;;;;;4.30;2.17;;;14.20;99.90;;;;;;5050835;28;20193;-70
2022/08/27 08:44:31;;;;;;;3.13;1.60;;;14.20;99.90;;;;;;5051725;28;20196;-69
2022/08/27 08:47:09;;;;;;;5.22;2.20;;;14.10;99.90;;;;;;5048959;28;20224;-70
2022/08/27 08:49:48;;;;;;;5.97;2.22;;;14.10;99.90;;;;;;5050817;28;20197;-69
2022/08/27 08:52:41;;;;;;;4.95;2.25;;;14.10;99.90;;;;;;5049633;28;20193;-70
2022/08/27 08:55:25;;;;;;;4.45;2.50;;;14.10;99.90;;;;;;5044906;28;20186;-69
2022/08/27 08:58:05;;;;;;;3.83;2.50;;;14.00;99.90;;;;;;5047347;28;20258;-71
2022/08/27 09:00:37;;;;;;;6.65;3.10;;;14.00;99.90;;;;;;5041792;28;20201;-71
2022/08/27 09:03:12;;;;;;;4.82;2.80;;;14.00;99.90;;;;;;5045611;28;20549;-70
2022/08/27 09:05:49;;;;;;;5.78;3.35;;;14.00;99.90;;;;;;5050077;28;20201;-69
2022/08/27 09:08:24;;;;;;;5.68;3.13;;;13.90;99.90;;;;;;5050883;28;20189;-70
2022/08/27 09:11:01;;;;;;;6.45;3.17;;;13.90;99.90;;;;;;5051482;28;20284;-69
2022/08/27 09:13:35;;;;;;;7.00;3.13;;;13.90;99.90;;;;;;5050032;28;20193;-70
2022/08/27 09:16:07;;;;;;;6.47;3.40;;;13.90;99.90;;;;;;5050684;28;20205;-69
2022/08/27 09:18:43;;;;;;;4.93;3.58;;;13.90;99.90;;;;;;5049777;28;20205;-71
2022/08/27 09:21:26;;;;;;;5.93;3.60;;;13.90;99.90;;;;;;5049685;28;20205;-69
2022/08/27 09:24:08;;;;;;;7.75;3.70;;;13.80;99.90;;;;;;5047432;28;20207;-71
2022/08/27 09:26:41;;;;;;;7.03;3.90;;;13.80;99.90;;;;;;5045293;28;20206;-71
2022/08/27 09:29:18;;;;;;;7.72;3.53;;;13.80;99.90;;;;;;5051692;28;20194;-76
2022/08/27 09:31:55;;;;;;;5.45;3.55;;;13.80;99.90;;;;;;5055503;28;20196;-76
2022/08/27 09:34:29;;;;;;;8.90;3.70;;;13.80;99.90;;;;;;5052078;28;20215;-69
2022/08/27 09:37:06;;;;;;;4.63;3.15;;;13.80;99.90;;;;;;5054653;28;20667;-76
2022/08/27 09:39:43;;;;;;;5.95;3.30;;;13.70;99.90;;;;;;5054965;28;20233;-69
2022/08/27 09:42:30;;;;;;;5.05;3.35;;;13.70;99.90;;;;;;5054270;28;20205;-70
2022/08/27 09:45:01;;;;;;;5.28;2.92;;;13.70;99.90;;;;;;5046270;28;20200;-71
2022/08/27 09:47:31;;;;;;;5.22;3.10;;;13.70;99.90;;;;;;5048005;28;20213;-70
2022/08/27 09:50:10;;;;;;;4.55;2.63;;;13.70;99.90;;;;;;5054137;28;20193;-69
2022/08/27 09:52:51;;;;;;;4.43;2.70;;;13.60;99.90;;;;;;5054207;28;20197;-71
2022/08/27 09:55:39;;;;;;;5.10;3.13;;;13.60;99.90;;;;;;5050491;28;20186;-69
2022/08/27 09:58:18;;;;;;;5.40;2.88;;;13.60;99.90;;;;;;5046936;28;20229;-70
2022/08/27 10:00:49;;;;;;;4.63;3.05;;;13.60;99.90;;;;;;5044319;28;20227;-69
2022/08/27 10:03:24;;;;;;;5.85;2.90;;;13.50;99.90;;;;;;5053844;28;20197;-69
2022/08/27 10:05:57;;;;;;;4.15;2.80;;;13.50;99.90;;;;;;5052908;28;20205;-69
2022/08/27 10:08:36;;;;;;;6.50;3.15;;;13.50;99.90;;;;;;5054880;28;20545;-69
2022/08/27 10:11:11;;;;;;;4.45;2.88;;;13.50;99.90;;;;;;5053273;28;20279;-69
2022/08/27 10:13:51;;;;;;;5.30;2.67;;;13.40;99.90;;;;;;5049580;28;20652;-69
2022/08/27 10:16:51;;;;;;;4.25;2.58;;;13.40;99.90;;;;;;5047501;28;20190;-69
2022/08/27 10:19:47;;;;;;;5.75;2.90;;;13.40;99.90;;;;;;5048586;28;20206;-69
2022/08/27 10:22:30;;;;;;;5.55;2.53;;;13.40;99.90;;;;;;5051820;28;20980;-72
2022/08/27 10:25:11;;;;;;;5.07;2.60;;;13.30;99.90;;;;;;5052380;28;20197;-71
2022/08/27 10:27:49;;;;;;;5.72;2.55;;;13.30;99.90;;;;;;5048908;28;20571;-69
2022/08/27 10:30:23;;;;;;;5.30;2.45;;;13.30;99.90;;;;;;5053384;28;20660;-69
2022/08/27 10:33:02;;;;;;;6.10;2.78;;;13.30;99.90;;;;;;5051273;28;20224;-74
2022/08/27 10:35:39;;;;;;;7.88;3.60;;;13.20;99.90;;;;;;5053835;28;20207;-71
2022/08/27 10:38:16;;;;;;;7.18;3.25;;;13.20;99.90;;;;;;5053974;28;20198;-73
2022/08/27 10:40:53;;;;;;;7.28;3.55;;;13.20;99.90;;;;;;5046378;28;20201;-70
2022/08/27 10:43:59;;;;;;;7.45;4.07;;;13.20;99.90;;;;;;5053387;28;20208;-70
2022/08/27 10:46:49;;;;;;;6.40;3.80;;;13.20;99.90;;;;;;5053566;28;20197;-70
2022/08/27 10:49:28;;;;;;;9.43;5.30;;;13.20;99.90;;;;;;5052787;28;20193;-70
2022/08/27 10:52:05;;;;;;;8.63;5.07;;;13.20;99.90;;;;;;5051237;28;20201;-70
2022/08/27 10:54:44;;;;;;;8.38;5.38;;;13.20;99.90;;;;;;5052032;28;20198;-69
2022/08/27 10:57:24;;;;;;;11.55;5.80;;;13.20;99.90;;;;;;5052354;28;20213;-69
2022/08/27 11:00:00;;;;;;;8.25;5.55;;;13.10;99.90;;;;;;5052902;28;20204;-70
2022/08/27 11:02:38;;;;;;;10.85;5.40;;;13.10;99.90;;;;;;5047446;28;20193;-70
2022/08/27 11:05:17;;;;;;;9.45;5.57;;;13.00;99.90;;;;;;5049071;28;20189;-70
2022/08/27 11:07:51;;;;;;;12.30;6.00;;;13.00;99.90;;;;;;5051868;28;20222;-69
2022/08/27 11:10:29;;;;;;;11.63;6.00;;;13.00;99.90;;;;;;5051408;28;20200;-72
2022/08/27 11:13:07;;;;;;;10.90;6.47;;;12.90;99.90;;;;;;5053353;28;20272;-70
2022/08/27 11:15:42;;;;;;;11.45;6.75;;;12.90;99.90;;;;;;5051975;28;20198;-70
2022/08/27 11:18:20;;;;;;;10.70;6.45;;;12.90;99.90;;;;;;5053257;28;20196;-70
2022/08/27 11:20:56;;;;;;;9.77;5.80;;;12.90;99.90;;;;;;5053589;28;20578;-70
2022/08/27 11:23:31;;;;;;;13.10;6.38;;;12.80;99.90;;;;;;5046708;28;20193;-70
2022/08/27 11:26:05;;;;;;;11.60;6.43;;;12.80;99.90;;;;;;5050389;28;20198;-71
2022/08/27 11:28:40;;;;;;;12.10;7.15;;;12.80;99.90;;;;;;5053123;28;20213;-70
2022/08/27 11:31:20;;;;;;;13.52;7.95;;;12.70;99.90;;;;;;5052972;28;20251;-70
2022/08/27 11:33:59;;;;;;;11.40;7.55;;;12.70;99.90;;;;;;5047424;28;20209;-69
2022/08/27 11:36:44;;;;;;;11.70;6.68;;;12.70;99.90;;;;;;5038602;28;20645;-69
2022/08/27 11:39:29;;;;;;;12.25;7.55;;;12.70;99.90;;;;;;5045168;28;20222;-70
2022/08/27 11:42:10;;;;;;;12.73;7.13;;;12.70;99.90;;;;;;5049686;28;20197;-70
2022/08/27 11:44:47;;;;;;;10.95;7.85;;;12.70;99.90;;;;;;5045953;28;20192;-70
2022/08/27 11:47:21;;;;;;;12.10;7.32;;;12.80;99.90;;;;;;5050988;28;20209;-71
2022/08/27 11:49:54;;;;;;;14.43;7.95;;;12.80;99.90;;;;;;5051779;28;20201;-70
2022/08/27 11:52:29;;;;;;;13.38;7.30;;;12.90;99.90;;;;;;5046780;28;20228;-69
2022/08/27 11:55:13;;;;;;;13.13;7.55;;;12.90;99.90;;;;;;5049058;28;20204;-71
2022/08/27 11:57:46;;;;;;;13.80;8.07;;;12.90;99.90;;;;;;5047718;28;20698;-70
2022/08/27 12:00:20;;;;;;;13.02;7.75;;;13.10;99.90;;;;;;5044661;28;20198;-70
2022/08/27 12:03:00;;;;;;;11.73;7.32;;;13.10;99.90;;;;;;5042842;28;20204;-71
2022/08/27 12:05:41;;;;;;;13.18;7.50;;;13.10;99.90;;;;;;5047587;28;20181;-71
2022/08/27 12:08:30;;;;;;;11.90;7.25;;;13.10;99.90;;;;;;5044275;28;20222;-70
2022/08/27 12:11:23;;;;;;;11.77;7.25;;;13.10;99.90;;;;;;5043484;28;20197;-70
2022/08/27 12:14:02;;;;;;;15.18;8.68;;;13.20;99.90;;;;;;5042883;28;20548;-70
2022/08/27 12:16:41;;;;;;;14.90;9.73;;;13.20;99.90;;;;;;5049264;28;20194;-70
2022/08/27 12:19:32;;;;;;;13.82;8.85;;;13.10;99.90;;;;;;5043415;28;20517;-69
2022/08/27 12:22:19;;;;;;;18.90;10.88;;;13.10;99.90;;;;;;5045148;28;20315;-73
2022/08/27 12:24:54;;;;;;;16.33;9.73;;;13.20;99.90;;;;;;5043802;28;20193;-70
2022/08/27 12:27:35;;;;;;;14.75;9.52;;;13.10;99.90;;;;;;5049230;28;20222;-70
2022/08/27 12:30:22;;;;;;;16.20;9.20;;;13.20;99.90;;;;;;5043144;28;20214;-70
2022/08/27 12:32:54;;;;;;;13.60;8.05;;;13.20;99.90;;;;;;5045765;28;20201;-69
2022/08/27 12:35:30;;;;;;;11.75;7.97;;;13.20;99.90;;;;;;5044337;28;20241;-71
2022/08/27 12:38:13;;;;;;;13.02;7.85;;;13.20;99.90;;;;;;5037881;28;20186;-71
2022/08/27 12:40:48;;;;;;;14.98;7.93;;;13.20;99.90;;;;;;5037326;28;20198;-71
2022/08/27 12:43:23;;;;;;;14.15;8.00;;;13.20;99.90;;;;;;5037064;28;20197;-71
2022/08/27 12:46:01;;;;;;;11.77;7.13;;;13.10;99.90;;;;;;5040261;28;20208;-72
2022/08/27 12:48:38;;;;;;;12.00;6.90;;;13.20;99.90;;;;;;5037130;28;20224;-70
2022/08/27 12:51:14;;;;;;;12.73;7.18;;;13.10;99.90;;;;;;5046395;28;20200;-70
2022/08/27 12:53:48;;;;;;;11.00;6.30;;;13.10;99.90;;;;;;5046599;28;20225;-70
2022/08/27 12:56:49;;;;;;;11.35;6.28;;;13.20;99.90;;;;;;5042779;28;20196;-71
2022/08/27 12:59:59;;;;;;;10.85;6.63;;;13.10;99.90;;;;;;5043259;28;20205;-71
2022/08/27 13:02:50;;;;;;;10.18;6.25;;;13.20;99.90;;;;;;5033543;28;20220;-70
2022/08/27 13:05:23;;;;;;;12.05;6.50;;;13.20;99.90;;;;;;5045780;28;20531;-75
2022/08/27 13:07:55;;;;;;;9.88;6.22;;;13.20;99.90;;;;;;5051474;28;20213;-71
2022/08/27 13:10:32;;;;;;;10.23;6.45;;;13.20;99.90;;;;;;5052219;28;20284;-72
2022/08/27 13:13:11;;;;;;;12.00;7.35;;;13.10;99.90;;;;;;5045973;28;20212;-71
2022/08/27 13:15:46;;;;;;;10.32;6.80;;;13.10;99.90;;;;;;5051183;28;20201;-72
2022/08/27 13:18:19;;;;;;;10.55;6.90;;;13.10;99.90;;;;;;5050961;28;20197;-70
2022/08/27 13:20:52;;;;;;;10.50;7.05;;;13.10;99.90;;;;;;5048004;28;20240;-71
2022/08/27 13:23:26;;;;;;;11.90;7.38;;;13.10;99.90;;;;;;5044850;28;20197;-70
2022/08/27 13:26:00;;;;;;;14.13;7.93;;;13.00;99.90;;;;;;5051155;28;20630;-71
2022/08/27 13:28:32;;;;;;;22.70;8.07;;;13.00;99.90;;;;;;5048561;28;20213;-72
2022/08/27 13:31:05;;;;;;;11.13;7.05;;;13.00;99.90;;;;;;5049721;28;20553;-70
2022/08/27 13:33:40;;;;;;;11.45;7.40;;;12.90;99.90;;;;;;5048920;28;20202;-76